createdAt,value
2023-04-25T00:01:52.491Z,7.93
2023-04-25T00:04:23.216Z,7.95
2023-04-25T00:06:55.934Z,8.01
2023-04-25T00:09:26.313Z,8.00
2023-04-25T00:11:55.987Z,7.97
2023-04-25T00:14:26.409Z,7.82
2023-04-25T00:16:56.383Z,7.71
2023-04-25T00:19:27.947Z,7.72
2023-04-25T00:22:00.435Z,7.73
2023-04-25T00:24:30.186Z,7.77
2023-04-25T00:26:59.953Z,7.61
2023-04-25T00:29:29.834Z,7.49
2023-04-25T00:31:59.680Z,7.35
2023-04-25T00:34:29.456Z,7.26
2023-04-25T00:37:03.097Z,7.21
2023-04-25T00:39:32.790Z,7.17
2023-04-25T00:42:03.437Z,7.24
2023-04-25T00:44:34.357Z,7.17
2023-04-25T00:47:06.083Z,7.15
2023-04-25T00:49:36.574Z,7.11
2023-04-25T00:52:09.163Z,7.21
2023-04-25T00:54:41.686Z,7.38
2023-04-25T00:57:11.908Z,7.17
2023-04-25T00:59:42.191Z,7.19
2023-04-25T01:02:12.738Z,7.26
2023-04-25T01:04:43.013Z,7.33
2023-04-25T01:07:15.333Z,7.23
2023-04-25T01:09:45.519Z,7.34
2023-04-25T01:12:16.136Z,7.44
2023-04-25T01:14:45.946Z,7.47
2023-04-25T01:17:17.156Z,7.53
2023-04-25T01:19:47.291Z,7.34
2023-04-25T01:22:19.734Z,7.31
2023-04-25T01:24:50.708Z,7.53
2023-04-25T01:27:21.959Z,7.46
2023-04-25T01:29:52.657Z,7.39
2023-04-25T01:32:22.717Z,7.53
2023-04-25T01:34:53.171Z,7.61
2023-04-25T01:37:26.413Z,7.65
2023-04-25T01:39:56.253Z,7.53
2023-04-25T01:42:26.285Z,7.43
2023-04-25T01:44:56.173Z,7.43
2023-04-25T01:47:26.059Z,7.35
2023-04-25T01:49:55.992Z,7.45
2023-04-25T01:52:28.756Z,7.59
2023-04-25T01:55:00.750Z,7.62
2023-04-25T01:57:31.677Z,7.49
2023-04-25T02:00:04.000Z,7.46
2023-04-25T02:02:42.853Z,7.45
2023-04-25T02:05:25.537Z,7.25
2023-04-25T02:07:58.110Z,7.31
2023-04-25T02:10:29.301Z,7.20
2023-04-25T02:13:11.173Z,7.21
2023-04-25T02:15:59.750Z,7.26
2023-04-25T02:18:29.972Z,7.16
2023-04-25T02:20:59.651Z,7.15
2023-04-25T02:23:32.162Z,7.31
2023-04-25T02:26:03.641Z,7.25
2023-04-25T02:28:33.607Z,6.95
2023-04-25T02:31:07.970Z,7.16
2023-04-25T02:33:37.735Z,7.10
2023-04-25T02:36:09.784Z,7.12
2023-04-25T02:38:42.528Z,7.28
2023-04-25T02:41:12.193Z,7.25
2023-04-25T02:43:41.903Z,7.21
2023-04-25T02:46:11.731Z,7.27
2023-04-25T02:48:42.995Z,7.37
2023-04-25T02:51:12.700Z,7.17
2023-04-25T02:53:45.123Z,7.30
2023-04-25T02:56:14.914Z,7.12
2023-04-25T02:58:44.607Z,7.31
2023-04-25T03:01:14.600Z,7.29
2023-04-25T03:03:44.495Z,7.68
2023-04-25T03:06:14.499Z,7.34
2023-04-25T03:08:46.945Z,7.37
2023-04-25T03:11:16.710Z,7.26
2023-04-25T03:13:46.752Z,7.29
2023-04-25T03:16:17.410Z,7.53
2023-04-25T03:18:47.185Z,7.71
2023-04-25T03:21:17.074Z,7.85
2023-04-25T03:23:49.519Z,8.07
2023-04-25T03:26:19.401Z,7.81
2023-04-25T03:28:49.207Z,7.65
2023-04-25T03:31:19.000Z,7.26
2023-04-25T03:33:49.014Z,7.53
2023-04-25T03:36:20.201Z,7.65
2023-04-25T03:38:52.460Z,7.57
2023-04-25T03:41:24.600Z,7.42
2023-04-25T03:43:58.178Z,7.35
2023-04-25T03:46:28.131Z,7.46
2023-04-25T03:48:57.903Z,7.28
2023-04-25T03:51:35.101Z,7.34
2023-04-25T03:54:08.488Z,7.44
2023-04-25T03:56:43.793Z,7.34
2023-04-25T03:59:21.604Z,7.15
2023-04-25T04:01:51.628Z,7.34
2023-04-25T04:04:21.715Z,7.36
2023-04-25T04:06:51.947Z,7.28
2023-04-25T04:09:29.911Z,7.40
2023-04-25T04:12:02.592Z,7.15
2023-04-25T04:14:34.318Z,6.92
2023-04-25T04:17:04.051Z,7.00
2023-04-25T04:19:33.702Z,6.95
2023-04-25T04:22:11.676Z,6.98
2023-04-25T04:24:47.596Z,6.97
2023-04-25T04:27:23.752Z,7.07
2023-04-25T04:30:04.442Z,7.00
2023-04-25T04:32:38.888Z,6.76
2023-04-25T04:35:12.268Z,6.83
2023-04-25T04:37:42.618Z,6.75
2023-04-25T04:40:19.080Z,6.86
2023-04-25T04:42:57.634Z,6.63
2023-04-25T04:45:57.318Z,6.49
2023-04-25T04:48:45.686Z,6.51
2023-04-25T04:51:39.407Z,6.53
2023-04-25T04:54:19.565Z,6.23
2023-04-25T04:57:17.713Z,6.18
2023-04-25T05:00:11.818Z,6.05
2023-04-25T05:03:07.652Z,6.14
2023-04-25T05:05:56.542Z,6.23
2023-04-25T05:08:36.087Z,6.11
2023-04-25T05:11:37.889Z,6.20
2023-04-25T05:14:19.600Z,6.19
2023-04-25T05:17:12.129Z,6.20
2023-04-25T05:20:00.414Z,6.21
2023-04-25T05:23:02.625Z,6.13
2023-04-25T05:25:44.867Z,6.26
2023-04-25T05:28:28.182Z,6.16
2023-04-25T05:31:18.665Z,6.11
2023-04-25T05:33:59.925Z,6.30
2023-04-25T05:36:39.460Z,6.36
2023-04-25T05:39:10.032Z,6.50
2023-04-25T05:41:58.355Z,6.87
2023-04-25T05:44:56.323Z,6.76
2023-04-25T05:47:37.946Z,7.11
2023-04-25T05:50:15.833Z,7.04
2023-04-25T05:53:03.857Z,6.92
2023-04-25T05:55:42.164Z,6.79
2023-04-25T05:58:41.298Z,6.98
2023-04-25T06:01:13.183Z,7.29
2023-04-25T06:03:46.189Z,7.27
2023-04-25T06:06:16.118Z,7.12
2023-04-25T06:08:46.060Z,6.97
2023-04-25T06:11:15.784Z,6.95
2023-04-25T06:13:45.483Z,7.07
2023-04-25T06:16:15.860Z,6.94
2023-04-25T06:18:48.184Z,7.18
2023-04-25T06:21:18.781Z,7.00
2023-04-25T06:23:49.138Z,7.07
2023-04-25T06:26:23.890Z,7.00
2023-04-25T06:28:53.627Z,7.28
2023-04-25T06:31:23.377Z,7.26
2023-04-25T06:33:58.046Z,7.35
2023-04-25T06:36:29.442Z,7.12
2023-04-25T06:39:05.729Z,7.23
2023-04-25T06:41:36.613Z,7.51
2023-04-25T06:44:09.945Z,7.55
2023-04-25T06:46:44.240Z,7.28
2023-04-25T06:49:19.425Z,7.28
2023-04-25T06:51:49.185Z,7.55
2023-04-25T06:54:18.953Z,8.14
2023-04-25T06:56:59.369Z,7.99
2023-04-25T06:59:30.604Z,8.40
2023-04-25T07:02:00.301Z,8.30
2023-04-25T07:04:32.899Z,7.74
2023-04-25T07:07:03.872Z,8.75
2023-04-25T07:09:43.088Z,8.06
2023-04-25T07:12:12.752Z,8.38
2023-04-25T07:14:42.417Z,8.09
2023-04-25T07:17:13.179Z,7.74
2023-04-25T07:19:45.966Z,7.37
2023-04-25T07:22:16.110Z,7.79
2023-04-25T07:24:49.719Z,7.61
2023-04-25T07:27:22.179Z,8.26
2023-04-25T07:30:18.133Z,8.44
2023-04-25T07:32:47.864Z,8.39
2023-04-25T07:35:21.478Z,8.71
2023-04-25T07:37:52.415Z,8.63
2023-04-25T07:40:23.776Z,8.42
2023-04-25T07:42:58.458Z,8.27
2023-04-25T07:45:36.444Z,8.58
2023-04-25T07:48:07.440Z,8.29
2023-04-25T07:50:42.777Z,9.27
2023-04-25T07:53:12.522Z,9.11
2023-04-25T07:55:49.650Z,8.70
2023-04-25T07:58:22.595Z,8.31
2023-04-25T08:00:57.374Z,8.03
2023-04-25T08:03:44.188Z,8.08
2023-04-25T08:06:23.241Z,8.22
2023-04-25T08:09:10.594Z,8.48
2023-04-25T08:11:43.174Z,8.35
2023-04-25T08:14:15.532Z,8.62
2023-04-25T08:16:47.097Z,8.06
2023-04-25T08:19:17.071Z,8.00
2023-04-25T08:21:52.999Z,8.39
2023-04-25T08:24:29.515Z,8.45
2023-04-25T08:27:00.174Z,8.25
2023-04-25T08:29:31.675Z,8.45
2023-04-25T08:32:01.355Z,8.76
2023-04-25T08:34:31.833Z,8.81
2023-04-25T08:37:09.427Z,8.62
2023-04-25T08:39:44.507Z,8.94
2023-04-25T08:42:35.341Z,8.85
2023-04-25T08:45:07.659Z,9.36
2023-04-25T08:47:42.718Z,8.74
2023-04-25T08:50:12.894Z,8.48
2023-04-25T08:52:49.210Z,8.24
2023-04-25T08:55:19.734Z,8.53
2023-04-25T08:57:50.021Z,8.79
2023-04-25T09:00:22.434Z,8.55
2023-04-25T09:02:52.462Z,8.12
2023-04-25T09:05:22.546Z,8.16
2023-04-25T09:07:59.316Z,8.27
2023-04-25T09:13:10.148Z,8.53
2023-04-25T09:16:02.811Z,8.79
2023-04-25T09:18:48.372Z,8.92
2023-04-25T09:21:18.739Z,8.71
2023-04-25T09:23:53.816Z,9.44
2023-04-25T09:26:25.227Z,8.89
2023-04-25T09:29:09.329Z,9.38
2023-04-25T09:31:43.361Z,8.73
2023-04-25T09:34:16.856Z,8.68
2023-04-25T09:36:51.833Z,8.94
2023-04-25T09:39:48.473Z,8.54
2023-04-25T09:42:20.791Z,8.80
2023-04-25T09:44:50.990Z,8.49
2023-04-25T09:47:22.850Z,8.54
2023-04-25T09:49:53.588Z,9.14
2023-04-25T09:52:26.501Z,8.65
2023-04-25T09:55:07.132Z,8.82
2023-04-25T09:57:40.969Z,9.70
2023-04-25T10:00:14.180Z,9.15
2023-04-25T10:02:50.635Z,9.53
2023-04-25T10:05:47.211Z,9.62
2023-04-25T10:08:17.614Z,9.63
2023-04-25T10:10:52.612Z,9.26
2023-04-25T10:13:22.750Z,9.04
2023-04-25T10:15:53.524Z,9.15
2023-04-25T10:18:23.601Z,9.14
2023-04-25T10:20:54.405Z,9.51
2023-04-25T10:23:24.630Z,9.22
2023-04-25T10:25:57.862Z,9.03
2023-04-25T10:28:29.488Z,9.45
2023-04-25T10:31:04.084Z,10.18
2023-04-25T10:33:37.691Z,10.65
2023-04-25T10:36:15.340Z,10.53
2023-04-25T10:38:46.764Z,10.18
2023-04-25T10:41:22.403Z,9.70
2023-04-25T10:43:52.949Z,9.62
2023-04-25T10:46:26.246Z,9.76
2023-04-25T10:48:57.497Z,9.32
2023-04-25T10:51:34.569Z,9.62
2023-04-25T10:54:08.685Z,9.68
2023-04-25T10:56:45.558Z,9.43
2023-04-25T10:59:16.892Z,8.92
2023-04-25T11:01:50.388Z,8.65
2023-04-25T11:04:27.798Z,8.60
2023-04-25T11:07:11.807Z,8.75
2023-04-25T11:09:43.592Z,9.03
2023-04-25T11:12:16.237Z,9.10
2023-04-25T11:14:46.107Z,9.65
2023-04-25T11:17:15.915Z,9.85
2023-04-25T11:19:45.765Z,9.69
2023-04-25T11:22:16.266Z,9.68
2023-04-25T11:24:46.418Z,10.43
2023-04-25T11:27:18.749Z,10.32
2023-04-25T11:29:49.255Z,10.47
2023-04-25T11:32:21.290Z,10.12
2023-04-25T11:34:51.554Z,9.59
2023-04-25T11:37:22.278Z,9.20
2023-04-25T11:39:52.425Z,9.22
2023-04-25T11:42:24.697Z,8.88
2023-04-25T11:44:55.330Z,9.07
2023-04-25T11:47:32.270Z,9.46
2023-04-25T11:50:03.768Z,9.18
2023-04-25T11:52:43.240Z,9.02
2023-04-25T11:55:16.473Z,9.34
2023-04-25T11:57:53.071Z,9.39
2023-04-25T12:00:26.421Z,9.43
2023-04-25T12:02:59.246Z,9.99
2023-04-25T12:05:33.223Z,10.15
2023-04-25T12:08:16.538Z,10.82
2023-04-25T12:10:49.294Z,10.50
2023-04-25T12:13:26.096Z,10.27
2023-04-25T12:15:58.345Z,9.94
2023-04-25T12:18:29.563Z,9.74
2023-04-25T12:20:59.318Z,9.75
2023-04-25T12:23:31.893Z,9.40
2023-04-25T12:26:03.935Z,9.40
2023-04-25T12:28:36.458Z,9.31
2023-04-25T12:31:07.580Z,8.98
2023-04-25T12:33:40.544Z,9.22
2023-04-25T12:36:13.873Z,9.12
2023-04-25T12:38:45.155Z,9.05
2023-04-25T12:41:14.819Z,9.25
2023-04-25T12:43:47.234Z,9.37
2023-04-25T12:46:17.047Z,9.28
2023-04-25T12:48:47.061Z,9.59
2023-04-25T12:51:17.032Z,9.59
2023-04-25T12:53:46.762Z,9.94
2023-04-25T12:56:16.640Z,9.93
2023-04-25T12:58:49.573Z,9.94
2023-04-25T13:01:20.360Z,9.97
2023-04-25T13:03:50.651Z,10.10
2023-04-25T13:06:21.475Z,10.25
2023-04-25T13:08:51.305Z,10.10
2023-04-25T13:11:21.497Z,9.60
2023-04-25T13:13:54.266Z,9.56
2023-04-25T13:16:24.519Z,9.85
2023-04-25T13:18:54.268Z,9.53
2023-04-25T13:21:23.916Z,9.86
2023-04-25T13:23:54.226Z,9.40
2023-04-25T13:26:24.413Z,9.79
2023-04-25T13:28:56.819Z,9.55
2023-04-25T13:31:26.979Z,9.29
2023-04-25T13:33:57.199Z,9.77
2023-04-25T13:36:27.058Z,9.86
2023-04-25T13:38:56.707Z,9.74
2023-04-25T13:41:26.425Z,9.50
2023-04-25T13:43:58.772Z,9.28
2023-04-25T13:46:44.665Z,9.14
2023-04-25T13:49:15.993Z,9.27
2023-04-25T13:51:45.995Z,9.27
2023-04-25T13:54:15.693Z,8.93
2023-04-25T13:56:45.640Z,8.84
2023-04-25T13:59:18.232Z,8.89
2023-04-25T14:01:47.966Z,9.11
2023-04-25T14:04:17.726Z,9.02
2023-04-25T14:06:47.701Z,9.11
2023-04-25T14:09:17.381Z,8.88
2023-04-25T14:11:47.053Z,9.11
2023-04-25T14:14:19.343Z,9.38
2023-04-25T14:16:49.356Z,9.83
2023-04-25T14:19:20.938Z,10.02
2023-04-25T14:21:51.870Z,9.97
2023-04-25T14:24:21.632Z,10.02
2023-04-25T14:26:51.380Z,9.98
2023-04-25T14:29:23.706Z,10.24
2023-04-25T14:31:54.771Z,10.25
2023-04-25T14:34:24.522Z,10.12
2023-04-25T14:36:54.962Z,9.83
2023-04-25T14:39:24.671Z,9.80
2023-04-25T14:41:54.394Z,9.62
2023-04-25T14:44:26.724Z,9.70
2023-04-25T14:46:56.659Z,9.87
2023-04-25T14:49:26.432Z,9.55
2023-04-25T14:51:56.165Z,9.97
2023-04-25T14:54:26.764Z,10.02
2023-04-25T14:56:56.619Z,10.23
2023-04-25T14:59:29.292Z,9.83
2023-04-25T15:02:00.162Z,9.86
2023-04-25T15:04:30.194Z,9.47
2023-04-25T15:07:00.421Z,9.32
2023-04-25T15:09:30.223Z,9.36
2023-04-25T15:12:00.760Z,9.35
2023-04-25T15:14:33.071Z,9.54
2023-04-25T15:17:03.574Z,9.45
2023-04-25T15:19:33.427Z,9.22
2023-04-25T15:22:04.707Z,9.36
2023-04-25T15:24:34.456Z,9.44
2023-04-25T15:27:05.662Z,9.40
2023-04-25T15:29:37.944Z,9.21
2023-04-25T15:32:08.017Z,9.76
2023-04-25T15:34:38.175Z,9.75
2023-04-25T15:37:07.871Z,9.68
2023-04-25T15:39:37.689Z,9.64
2023-04-25T15:42:07.455Z,9.49
2023-04-25T15:44:40.211Z,9.78
2023-04-25T15:47:10.023Z,9.14
2023-04-25T15:49:39.713Z,9.44
2023-04-25T15:52:09.434Z,9.07
2023-04-25T15:54:39.302Z,9.27
2023-04-25T15:57:13.165Z,9.09
2023-04-25T15:59:45.497Z,9.13
2023-04-25T16:02:16.536Z,8.93
2023-04-25T16:04:47.418Z,8.71
2023-04-25T16:07:18.305Z,8.29
2023-04-25T16:09:48.036Z,8.10
2023-04-25T16:12:18.681Z,7.93
2023-04-25T16:14:51.181Z,7.81
2023-04-25T16:17:21.132Z,7.60
2023-04-25T16:19:50.923Z,7.51
2023-04-25T16:22:20.801Z,7.62
2023-04-25T16:24:51.073Z,7.83
2023-04-25T16:27:22.074Z,7.48
2023-04-25T16:29:54.442Z,7.29
2023-04-25T16:32:24.219Z,7.42
2023-04-25T16:34:53.939Z,7.59
2023-04-25T16:37:23.716Z,7.79
2023-04-25T16:39:53.635Z,8.22
2023-04-25T16:42:23.397Z,8.27
2023-04-25T16:44:55.667Z,8.52
2023-04-25T16:47:25.508Z,8.31
2023-04-25T16:49:55.386Z,8.34
2023-04-25T16:52:25.076Z,8.15
2023-04-25T16:54:54.804Z,8.60
2023-04-25T16:57:24.444Z,8.23
2023-04-25T16:59:56.788Z,8.07
2023-04-25T17:02:26.650Z,7.98
2023-04-25T17:04:56.435Z,8.23
2023-04-25T17:07:26.945Z,8.10
2023-04-25T17:09:56.856Z,8.26
2023-04-25T17:12:26.761Z,8.13
2023-04-25T17:15:00.479Z,8.35
2023-04-25T17:17:30.347Z,8.37
2023-04-25T17:20:00.166Z,8.33
2023-04-25T17:22:30.028Z,8.36
2023-04-25T17:24:59.766Z,7.78
2023-04-25T17:27:29.512Z,7.10
2023-04-25T17:30:03.735Z,7.08
2023-04-25T17:32:33.889Z,7.74
2023-04-25T17:35:04.102Z,7.46
2023-04-25T17:37:33.868Z,7.80
2023-04-25T17:40:05.044Z,7.56
2023-04-25T17:42:34.762Z,7.85
2023-04-25T17:45:08.169Z,7.01
2023-04-25T17:47:37.960Z,6.86
2023-04-25T17:50:08.897Z,7.66
2023-04-25T17:52:38.763Z,7.11
2023-04-25T17:55:09.754Z,7.35
2023-04-25T17:57:39.645Z,7.38
2023-04-25T18:00:13.706Z,7.44
2023-04-25T18:02:45.821Z,7.28
2023-04-25T18:05:15.783Z,7.15
2023-04-25T18:07:46.126Z,6.99
2023-04-25T18:10:17.734Z,6.70
2023-04-25T18:12:47.541Z,6.63
2023-04-25T18:15:20.944Z,6.88
2023-04-25T18:17:50.818Z,6.98
2023-04-25T18:20:22.421Z,6.81
2023-04-25T18:22:52.316Z,6.86
2023-04-25T18:25:21.999Z,6.67
2023-04-25T18:27:52.226Z,6.84
2023-04-25T18:30:24.734Z,6.86
2023-04-25T18:32:54.468Z,7.08
2023-04-25T18:35:24.328Z,7.05
2023-04-25T18:37:54.422Z,7.12
2023-04-25T18:40:24.175Z,6.87
2023-04-25T18:42:54.071Z,7.02
2023-04-25T18:45:26.306Z,6.77
2023-04-25T18:47:56.212Z,6.87
2023-04-25T18:50:26.576Z,7.11
2023-04-25T18:52:56.389Z,7.31
2023-04-25T18:55:26.044Z,7.40
2023-04-25T18:57:55.902Z,7.29
2023-04-25T19:00:28.186Z,7.55
2023-04-25T19:03:03.363Z,7.05
2023-04-25T19:05:33.491Z,6.64
2023-04-25T19:08:03.225Z,6.08
2023-04-25T19:10:33.039Z,5.63
2023-04-25T19:13:02.827Z,5.37
2023-04-25T19:15:35.920Z,5.29
2023-04-25T19:18:05.625Z,5.27
2023-04-25T19:20:35.966Z,5.76
2023-04-25T19:23:05.677Z,5.82
2023-04-25T19:25:36.597Z,5.71
2023-04-25T19:28:07.935Z,5.90
2023-04-25T19:30:40.291Z,6.07
2023-04-25T19:33:10.675Z,6.36
2023-04-25T19:35:41.336Z,5.86
2023-04-25T19:38:11.363Z,6.08
2023-04-25T19:40:41.402Z,6.14
2023-04-25T19:43:11.364Z,6.30
2023-04-25T19:45:43.668Z,6.16
2023-04-25T19:48:14.277Z,6.41
2023-04-25T19:50:44.064Z,6.14
2023-04-25T19:53:13.723Z,6.11
2023-04-25T19:55:44.360Z,6.02
2023-04-25T19:58:14.650Z,5.91
2023-04-25T20:00:47.301Z,5.98
2023-04-25T20:03:17.185Z,6.02
2023-04-25T20:05:46.915Z,5.94
2023-04-25T20:08:16.650Z,5.78
2023-04-25T20:10:46.296Z,5.86
2023-04-25T20:13:16.348Z,5.81
2023-04-25T20:15:48.686Z,5.85
2023-04-25T20:18:18.468Z,5.83
2023-04-25T20:20:48.301Z,5.99
2023-04-25T20:23:18.158Z,5.98
2023-04-25T20:25:48.148Z,6.08
2023-04-25T20:28:18.006Z,5.93
2023-04-25T20:30:50.569Z,5.87
2023-04-25T20:33:20.306Z,5.71
2023-04-25T20:35:49.996Z,5.78
2023-04-25T20:38:19.722Z,5.85
2023-04-25T20:40:49.522Z,5.77
2023-04-25T20:43:20.024Z,5.80
2023-04-25T20:45:53.490Z,5.91
2023-04-25T20:48:23.663Z,6.06
2023-04-25T20:50:53.346Z,6.15
2023-04-25T20:53:23.270Z,6.12
2023-04-25T20:55:52.992Z,5.95
2023-04-25T20:58:23.108Z,5.94
2023-04-25T21:00:56.578Z,5.96
2023-04-25T21:03:27.350Z,5.86
2023-04-25T21:05:57.356Z,5.95
2023-04-25T21:08:27.034Z,5.99
2023-04-25T21:10:56.723Z,6.05
2023-04-25T21:13:27.421Z,6.01
2023-04-25T21:16:00.146Z,6.02
2023-04-25T21:18:31.926Z,6.20
2023-04-25T21:21:03.277Z,6.03
2023-04-25T21:23:33.083Z,6.13
2023-04-25T21:26:02.845Z,6.00
2023-04-25T21:28:32.553Z,6.16
2023-04-25T21:31:04.955Z,5.95
2023-04-25T21:33:34.743Z,5.92
2023-04-25T21:36:04.378Z,5.75
2023-04-25T21:38:34.072Z,5.75
2023-04-25T21:41:03.781Z,5.69
2023-04-25T21:43:33.488Z,5.69
2023-04-25T21:46:22.262Z,5.81
2023-04-25T21:48:54.172Z,5.94
2023-04-25T21:51:24.155Z,5.92
2023-04-25T21:53:54.068Z,6.04
2023-04-25T21:56:23.848Z,6.01
2023-04-25T21:58:53.845Z,6.07
2023-04-25T22:01:27.748Z,6.14
2023-04-25T22:03:57.742Z,5.90
2023-04-25T22:06:28.690Z,5.83
2023-04-25T22:08:58.519Z,5.90
2023-04-25T22:11:28.652Z,5.97
2023-04-25T22:13:58.376Z,5.97
2023-04-25T22:16:30.781Z,5.68
2023-04-25T22:19:00.678Z,5.70
2023-04-25T22:21:30.739Z,5.66
2023-04-25T22:24:00.499Z,5.62
2023-04-25T22:26:30.536Z,5.75
2023-04-25T22:29:00.384Z,5.46
2023-04-25T22:31:33.645Z,5.42
2023-04-25T22:34:04.123Z,5.32
2023-04-25T22:36:34.022Z,5.35
2023-04-25T22:39:03.737Z,5.33
2023-04-25T22:41:33.581Z,5.21
2023-04-25T22:44:03.232Z,5.14
2023-04-25T22:46:35.537Z,4.94
2023-04-25T22:49:05.474Z,5.21
2023-04-25T22:51:35.198Z,5.16
2023-04-25T22:54:05.658Z,5.11
2023-04-25T22:56:35.453Z,4.96
2023-04-25T22:59:05.104Z,4.77
2023-04-25T23:01:38.053Z,4.85
2023-04-25T23:04:08.531Z,4.98
2023-04-25T23:06:38.383Z,5.22
2023-04-25T23:09:09.978Z,5.19
2023-04-25T23:11:40.596Z,5.57
2023-04-25T23:14:10.318Z,5.51
2023-04-25T23:16:43.211Z,5.48
2023-04-25T23:19:12.862Z,5.22
2023-04-25T23:21:42.793Z,5.21
2023-04-25T23:24:12.731Z,5.17
2023-04-25T23:26:44.289Z,5.25
2023-04-25T23:29:13.959Z,4.99
2023-04-25T23:31:46.191Z,4.75
2023-04-25T23:34:15.892Z,4.55
2023-04-25T23:36:45.721Z,4.59
2023-04-25T23:39:15.645Z,4.61
2023-04-25T23:41:45.298Z,4.58
2023-04-25T23:44:14.955Z,4.46
2023-04-25T23:46:47.308Z,4.47
2023-04-25T23:49:17.144Z,4.47
2023-04-25T23:51:46.848Z,4.36
2023-04-25T23:54:16.691Z,4.23
2023-04-25T23:56:46.350Z,4.27
2023-04-25T23:59:16.357Z,4.38
